sensor_id;sensor_type;location;lat;lon;timestamp;P1;durP1;ratioP1;P2;durP2;ratioP2
25327;SDS011;13279;51.300;12.394;2023-04-25T00:01:16;6.37;;;4.23;;
25327;SDS011;13279;51.300;12.394;2023-04-25T00:03:44;8.20;;;4.17;;
25327;SDS011;13279;51.300;12.394;2023-04-25T00:06:11;7.97;;;4.30;;
25327;SDS011;13279;51.300;12.394;2023-04-25T00:08:39;10.37;;;5.27;;
25327;SDS011;13279;51.300;12.394;2023-04-25T00:11:08;10.00;;;4.30;;
25327;SDS011;13279;51.300;12.394;2023-04-25T00:13:36;8.23;;;4.67;;
25327;SDS011;13279;51.300;12.394;2023-04-25T00:16:07;8.63;;;5.30;;
25327;SDS011;13279;51.300;12.394;2023-04-25T00:18:34;6.60;;;5.00;;
25327;SDS011;13279;51.300;12.394;2023-04-25T00:21:02;7.40;;;4.97;;
25327;SDS011;13279;51.300;12.394;2023-04-25T00:23:31;6.37;;;4.67;;
25327;SDS011;13279;51.300;12.394;2023-04-25T00:26:01;6.33;;;4.73;;
25327;SDS011;13279;51.300;12.394;2023-04-25T00:28:30;5.63;;;4.73;;
25327;SDS011;13279;51.300;12.394;2023-04-25T00:30:58;8.57;;;4.73;;
25327;SDS011;13279;51.300;12.394;2023-04-25T00:33:25;10.43;;;5.27;;
25327;SDS011;13279;51.300;12.394;2023-04-25T00:35:53;7.77;;;4.90;;
25327;SDS011;13279;51.300;12.394;2023-04-25T00:38:21;9.80;;;5.27;;
25327;SDS011;13279;51.300;12.394;2023-04-25T00:40:48;8.17;;;4.57;;
25327;SDS011;13279;51.300;12.394;2023-04-25T00:43:16;8.10;;;5.50;;
25327;SDS011;13279;51.300;12.394;2023-04-25T00:45:45;6.80;;;4.70;;
25327;SDS011;13279;51.300;12.394;2023-04-25T00:48:14;7.10;;;5.00;;
25327;SDS011;13279;51.300;12.394;2023-04-25T00:50:43;5.97;;;4.40;;
25327;SDS011;13279;51.300;12.394;2023-04-25T00:53:18;9.47;;;5.20;;
25327;SDS011;13279;51.300;12.394;2023-04-25T00:55:45;12.17;;;5.37;;
25327;SDS011;13279;51.300;12.394;2023-04-25T00:58:13;11.93;;;4.97;;
25327;SDS011;13279;51.300;12.394;2023-04-25T01:00:41;8.20;;;4.40;;
25327;SDS011;13279;51.300;12.394;2023-04-25T01:03:10;11.03;;;4.90;;
25327;SDS011;13279;51.300;12.394;2023-04-25T01:05:38;13.57;;;5.00;;
25327;SDS011;13279;51.300;12.394;2023-04-25T01:08:07;9.77;;;5.27;;
25327;SDS011;13279;51.300;12.394;2023-04-25T01:10:35;7.67;;;4.60;;
25327;SDS011;13279;51.300;12.394;2023-04-25T01:13:03;11.77;;;5.33;;
25327;SDS011;13279;51.300;12.394;2023-04-25T01:15:31;13.33;;;5.40;;
25327;SDS011;13279;51.300;12.394;2023-04-25T01:17:59;9.70;;;5.70;;
25327;SDS011;13279;51.300;12.394;2023-04-25T01:20:28;7.40;;;5.30;;
25327;SDS011;13279;51.300;12.394;2023-04-25T01:23:00;11.00;;;5.60;;
25327;SDS011;13279;51.300;12.394;2023-04-25T01:25:28;9.53;;;5.97;;
25327;SDS011;13279;51.300;12.394;2023-04-25T01:27:57;9.10;;;5.40;;
25327;SDS011;13279;51.300;12.394;2023-04-25T01:30:26;7.73;;;5.03;;
25327;SDS011;13279;51.300;12.394;2023-04-25T01:32:55;9.07;;;5.43;;
25327;SDS011;13279;51.300;12.394;2023-04-25T01:35:22;10.83;;;5.20;;
25327;SDS011;13279;51.300;12.394;2023-04-25T01:37:52;9.50;;;5.13;;
25327;SDS011;13279;51.300;12.394;2023-04-25T01:40:21;6.37;;;4.77;;
25327;SDS011;13279;51.300;12.394;2023-04-25T01:42:50;7.57;;;4.87;;
25327;SDS011;13279;51.300;12.394;2023-04-25T01:45:19;6.13;;;4.67;;
25327;SDS011;13279;51.300;12.394;2023-04-25T01:47:47;8.57;;;5.43;;
25327;SDS011;13279;51.300;12.394;2023-04-25T01:50:16;9.60;;;5.47;;
25327;SDS011;13279;51.300;12.394;2023-04-25T01:52:45;11.90;;;5.60;;
25327;SDS011;13279;51.300;12.394;2023-04-25T01:55:13;10.30;;;4.87;;
25327;SDS011;13279;51.300;12.394;2023-04-25T01:57:59;7.63;;;5.17;;
25327;SDS011;13279;51.300;12.394;2023-04-25T02:00:47;8.03;;;5.30;;
25327;SDS011;13279;51.300;12.394;2023-04-25T02:03:15;8.20;;;5.07;;
25327;SDS011;13279;51.300;12.394;2023-04-25T02:05:43;6.83;;;4.47;;
25327;SDS011;13279;51.300;12.394;2023-04-25T02:08:12;7.63;;;5.17;;
25327;SDS011;13279;51.300;12.394;2023-04-25T02:10:39;15.40;;;4.80;;
25327;SDS011;13279;51.300;12.394;2023-04-25T02:13:19;11.93;;;5.47;;
25327;SDS011;13279;51.300;12.394;2023-04-25T02:16:09;7.87;;;5.03;;
25327;SDS011;13279;51.300;12.394;2023-04-25T02:18:37;10.93;;;5.73;;
25327;SDS011;13279;51.300;12.394;2023-04-25T02:21:06;13.70;;;5.63;;
25327;SDS011;13279;51.300;12.394;2023-04-25T02:23:33;8.23;;;5.20;;
25327;SDS011;13279;51.300;12.394;2023-04-25T02:26:00;15.33;;;6.80;;
25327;SDS011;13279;51.300;12.394;2023-04-25T02:28:30;10.63;;;6.00;;
25327;SDS011;13279;51.300;12.394;2023-04-25T02:30:58;6.40;;;4.67;;
25327;SDS011;13279;51.300;12.394;2023-04-25T02:33:26;20.93;;;5.53;;
25327;SDS011;13279;51.300;12.394;2023-04-25T02:35:53;9.30;;;5.57;;
25327;SDS011;13279;51.300;12.394;2023-04-25T02:38:21;11.93;;;5.83;;
25327;SDS011;13279;51.300;12.394;2023-04-25T02:40:48;11.73;;;5.83;;
25327;SDS011;13279;51.300;12.394;2023-04-25T02:43:17;14.50;;;6.30;;
25327;SDS011;13279;51.300;12.394;2023-04-25T02:45:45;8.87;;;6.07;;
25327;SDS011;13279;51.300;12.394;2023-04-25T02:48:13;11.93;;;6.00;;
25327;SDS011;13279;51.300;12.394;2023-04-25T02:50:40;11.23;;;6.17;;
25327;SDS011;13279;51.300;12.394;2023-04-25T02:53:08;13.97;;;5.47;;
25327;SDS011;13279;51.300;12.394;2023-04-25T02:55:43;10.33;;;5.83;;
25327;SDS011;13279;51.300;12.394;2023-04-25T02:58:11;7.47;;;5.90;;
25327;SDS011;13279;51.300;12.394;2023-04-25T03:00:43;13.07;;;6.20;;
25327;SDS011;13279;51.300;12.394;2023-04-25T03:03:12;15.73;;;6.57;;
25327;SDS011;13279;51.300;12.394;2023-04-25T03:05:44;12.67;;;6.07;;
25327;SDS011;13279;51.300;12.394;2023-04-25T03:08:13;12.57;;;6.27;;
25327;SDS011;13279;51.300;12.394;2023-04-25T03:10:42;10.73;;;6.33;;
25327;SDS011;13279;51.300;12.394;2023-04-25T03:13:10;9.50;;;5.60;;
25327;SDS011;13279;51.300;12.394;2023-04-25T03:15:40;10.40;;;5.73;;
25327;SDS011;13279;51.300;12.394;2023-04-25T03:18:08;10.50;;;5.50;;
25327;SDS011;13279;51.300;12.394;2023-04-25T03:20:38;10.30;;;5.50;;
25327;SDS011;13279;51.300;12.394;2023-04-25T03:23:08;8.47;;;5.47;;
25327;SDS011;13279;51.300;12.394;2023-04-25T03:25:36;10.43;;;5.63;;
25327;SDS011;13279;51.300;12.394;2023-04-25T03:28:04;14.13;;;5.60;;
25327;SDS011;13279;51.300;12.394;2023-04-25T03:30:32;11.70;;;6.13;;
25327;SDS011;13279;51.300;12.394;2023-04-25T03:33:00;13.30;;;5.50;;
25327;SDS011;13279;51.300;12.394;2023-04-25T03:35:28;10.33;;;5.60;;
25327;SDS011;13279;51.300;12.394;2023-04-25T03:37:56;7.27;;;5.17;;
25327;SDS011;13279;51.300;12.394;2023-04-25T03:40:28;7.87;;;4.57;;
25327;SDS011;13279;51.300;12.394;2023-04-25T03:43:14;13.70;;;5.63;;
25327;SDS011;13279;51.300;12.394;2023-04-25T03:45:48;11.80;;;5.47;;
25327;SDS011;13279;51.300;12.394;2023-04-25T03:48:19;8.23;;;5.37;;
25327;SDS011;13279;51.300;12.394;2023-04-25T03:50:52;10.83;;;5.90;;
25327;SDS011;13279;51.300;12.394;2023-04-25T03:53:20;8.47;;;6.00;;
25327;SDS011;13279;51.300;12.394;2023-04-25T03:56:08;13.93;;;6.00;;
25327;SDS011;13279;51.300;12.394;2023-04-25T03:58:38;11.63;;;6.20;;
25327;SDS011;13279;51.300;12.394;2023-04-25T04:01:06;21.97;;;6.10;;
25327;SDS011;13279;51.300;12.394;2023-04-25T04:03:36;10.90;;;5.80;;
25327;SDS011;13279;51.300;12.394;2023-04-25T04:06:06;16.07;;;6.70;;
25327;SDS011;13279;51.300;12.394;2023-04-25T04:08:38;10.60;;;5.87;;
25327;SDS011;13279;51.300;12.394;2023-04-25T04:11:07;10.63;;;6.00;;
25327;SDS011;13279;51.300;12.394;2023-04-25T04:13:36;11.73;;;6.43;;
25327;SDS011;13279;51.300;12.394;2023-04-25T04:16:04;11.77;;;6.63;;
25327;SDS011;13279;51.300;12.394;2023-04-25T04:18:33;12.67;;;6.80;;
25327;SDS011;13279;51.300;12.394;2023-04-25T04:21:01;10.23;;;6.33;;
25327;SDS011;13279;51.300;12.394;2023-04-25T04:23:34;11.47;;;6.10;;
25327;SDS011;13279;51.300;12.394;2023-04-25T04:26:03;14.50;;;6.77;;
25327;SDS011;13279;51.300;12.394;2023-04-25T04:28:43;14.53;;;7.10;;
25327;SDS011;13279;51.300;12.394;2023-04-25T04:31:21;15.20;;;7.03;;
25327;SDS011;13279;51.300;12.394;2023-04-25T04:33:50;11.30;;;7.00;;
25327;SDS011;13279;51.300;12.394;2023-04-25T04:36:18;12.53;;;6.57;;
25327;SDS011;13279;51.300;12.394;2023-04-25T04:38:58;14.47;;;7.27;;
25327;SDS011;13279;51.300;12.394;2023-04-25T04:41:35;15.33;;;7.00;;
25327;SDS011;13279;51.300;12.394;2023-04-25T04:44:22;11.77;;;6.27;;
25327;SDS011;13279;51.300;12.394;2023-04-25T04:47:13;12.83;;;6.43;;
25327;SDS011;13279;51.300;12.394;2023-04-25T04:50:03;12.83;;;6.60;;
25327;SDS011;13279;51.300;12.394;2023-04-25T04:52:52;15.03;;;6.60;;
25327;SDS011;13279;51.300;12.394;2023-04-25T04:55:41;11.07;;;6.20;;
25327;SDS011;13279;51.300;12.394;2023-04-25T04:58:44;14.07;;;6.93;;
25327;SDS011;13279;51.300;12.394;2023-04-25T05:01:20;16.93;;;6.50;;
25327;SDS011;13279;51.300;12.394;2023-04-25T05:04:13;17.97;;;7.30;;
25327;SDS011;13279;51.300;12.394;2023-04-25T05:07:19;10.30;;;6.43;;
25327;SDS011;13279;51.300;12.394;2023-04-25T05:09:58;14.60;;;6.73;;
25327;SDS011;13279;51.300;12.394;2023-04-25T05:12:58;16.03;;;7.47;;
25327;SDS011;13279;51.300;12.394;2023-04-25T05:15:51;15.70;;;7.43;;
25327;SDS011;13279;51.300;12.394;2023-04-25T05:18:38;16.03;;;7.53;;
25327;SDS011;13279;51.300;12.394;2023-04-25T05:21:31;13.97;;;7.17;;
25327;SDS011;13279;51.300;12.394;2023-04-25T05:24:10;15.10;;;7.37;;
25327;SDS011;13279;51.300;12.394;2023-04-25T05:26:57;12.97;;;6.93;;
25327;SDS011;13279;51.300;12.394;2023-04-25T05:29:52;20.73;;;7.60;;
25327;SDS011;13279;51.300;12.394;2023-04-25T05:32:32;13.23;;;7.30;;
25327;SDS011;13279;51.300;12.394;2023-04-25T05:35:00;15.23;;;7.77;;
25327;SDS011;13279;51.300;12.394;2023-04-25T05:37:45;18.93;;;8.70;;
25327;SDS011;13279;51.300;12.394;2023-04-25T05:40:27;17.03;;;7.70;;
25327;SDS011;13279;51.300;12.394;2023-04-25T05:43:09;17.63;;;7.50;;
25327;SDS011;13279;51.300;12.394;2023-04-25T05:45:48;19.10;;;7.60;;
25327;SDS011;13279;51.300;12.394;2023-04-25T05:48:34;17.60;;;7.30;;
25327;SDS011;13279;51.300;12.394;2023-04-25T05:51:20;18.90;;;7.83;;
25327;SDS011;13279;51.300;12.394;2023-04-25T05:54:17;19.63;;;8.17;;
25327;SDS011;13279;51.300;12.394;2023-04-25T05:56:48;16.47;;;8.60;;
25327;SDS011;13279;51.300;12.394;2023-04-25T05:59:17;20.03;;;8.07;;
25327;SDS011;13279;51.300;12.394;2023-04-25T06:01:52;17.27;;;8.43;;
25327;SDS011;13279;51.300;12.394;2023-04-25T06:04:28;15.37;;;7.87;;
25327;SDS011;13279;51.300;12.394;2023-04-25T06:06:56;17.17;;;7.70;;
25327;SDS011;13279;51.300;12.394;2023-04-25T06:09:23;16.47;;;8.20;;
25327;SDS011;13279;51.300;12.394;2023-04-25T06:11:53;17.00;;;7.73;;
25327;SDS011;13279;51.300;12.394;2023-04-25T06:14:20;15.87;;;7.97;;
25327;SDS011;13279;51.300;12.394;2023-04-25T06:16:54;14.83;;;7.57;;
25327;SDS011;13279;51.300;12.394;2023-04-25T06:19:24;14.13;;;7.37;;
25327;SDS011;13279;51.300;12.394;2023-04-25T06:21:52;11.20;;;6.70;;
25327;SDS011;13279;51.300;12.394;2023-04-25T06:24:23;12.40;;;6.53;;
25327;SDS011;13279;51.300;12.394;2023-04-25T06:26:51;14.00;;;5.80;;
25327;SDS011;13279;51.300;12.394;2023-04-25T06:29:19;15.97;;;6.60;;
25327;SDS011;13279;51.300;12.394;2023-04-25T06:31:47;9.50;;;6.30;;
25327;SDS011;13279;51.300;12.394;2023-04-25T06:34:21;14.47;;;5.20;;
25327;SDS011;13279;51.300;12.394;2023-04-25T06:36:49;14.63;;;6.57;;
25327;SDS011;13279;51.300;12.394;2023-04-25T06:39:17;17.60;;;5.83;;
25327;SDS011;13279;51.300;12.394;2023-04-25T06:41:45;14.07;;;5.60;;
25327;SDS011;13279;51.300;12.394;2023-04-25T06:44:33;8.97;;;5.63;;
25327;SDS011;13279;51.300;12.394;2023-04-25T06:47:12;10.10;;;5.40;;
25327;SDS011;13279;51.300;12.394;2023-04-25T06:49:45;11.93;;;6.00;;
25327;SDS011;13279;51.300;12.394;2023-04-25T06:52:21;15.03;;;5.43;;
25327;SDS011;13279;51.300;12.394;2023-04-25T06:54:52;13.93;;;5.67;;
25327;SDS011;13279;51.300;12.394;2023-04-25T06:58:05;13.53;;;6.20;;
25327;SDS011;13279;51.300;12.394;2023-04-25T07:01:09;17.27;;;6.10;;
25327;SDS011;13279;51.300;12.394;2023-04-25T07:03:42;9.70;;;5.10;;
25327;SDS011;13279;51.300;12.394;2023-04-25T07:06:15;10.93;;;5.00;;
25327;SDS011;13279;51.300;12.394;2023-04-25T07:08:51;12.23;;;5.50;;
25327;SDS011;13279;51.300;12.394;2023-04-25T07:11:24;15.20;;;5.27;;
25327;SDS011;13279;51.300;12.394;2023-04-25T07:13:53;17.90;;;6.07;;
25327;SDS011;13279;51.300;12.394;2023-04-25T07:16:24;19.30;;;6.60;;
25327;SDS011;13279;51.300;12.394;2023-04-25T07:18:56;13.87;;;5.80;;
25327;SDS011;13279;51.300;12.394;2023-04-25T07:21:25;16.37;;;6.90;;
25327;SDS011;13279;51.300;12.394;2023-04-25T07:23:53;13.60;;;5.60;;
25327;SDS011;13279;51.300;12.394;2023-04-25T07:26:30;14.17;;;6.63;;
25327;SDS011;13279;51.300;12.394;2023-04-25T07:29:16;11.47;;;5.63;;
25327;SDS011;13279;51.300;12.394;2023-04-25T07:31:48;15.00;;;6.40;;
25327;SDS011;13279;51.300;12.394;2023-04-25T07:34:18;11.93;;;6.13;;
25327;SDS011;13279;51.300;12.394;2023-04-25T07:36:49;10.93;;;6.10;;
25327;SDS011;13279;51.300;12.394;2023-04-25T07:39:21;7.57;;;6.27;;
25327;SDS011;13279;51.300;12.394;2023-04-25T07:41:54;9.97;;;6.07;;
25327;SDS011;13279;51.300;12.394;2023-04-25T07:44:27;11.17;;;6.27;;
25327;SDS011;13279;51.300;12.394;2023-04-25T07:46:56;14.97;;;6.53;;
25327;SDS011;13279;51.300;12.394;2023-04-25T07:49:25;13.57;;;6.00;;
25327;SDS011;13279;51.300;12.394;2023-04-25T07:51:53;9.70;;;6.47;;
25327;SDS011;13279;51.300;12.394;2023-04-25T07:54:23;12.27;;;5.90;;
25327;SDS011;13279;51.300;12.394;2023-04-25T07:57:01;14.77;;;6.73;;
25327;SDS011;13279;51.300;12.394;2023-04-25T07:59:35;11.83;;;7.17;;
25327;SDS011;13279;51.300;12.394;2023-04-25T08:04:59;13.60;;;6.20;;
25327;SDS011;13279;51.300;12.394;2023-04-25T08:07:52;15.87;;;6.37;;
25327;SDS011;13279;51.300;12.394;2023-04-25T08:13:29;12.83;;;6.10;;
25327;SDS011;13279;51.300;12.394;2023-04-25T08:16:11;11.63;;;6.47;;
25327;SDS011;13279;51.300;12.394;2023-04-25T08:18:53;13.07;;;6.37;;
25327;SDS011;13279;51.300;12.394;2023-04-25T08:21:28;17.53;;;5.23;;
25327;SDS011;13279;51.300;12.394;2023-04-25T08:24:12;9.80;;;3.73;;
25327;SDS011;13279;51.300;12.394;2023-04-25T08:26:40;8.73;;;3.23;;
25327;SDS011;13279;51.300;12.394;2023-04-25T08:29:47;8.27;;;2.70;;
25327;SDS011;13279;51.300;12.394;2023-04-25T08:32:16;9.27;;;2.73;;
25327;SDS011;13279;51.300;12.394;2023-04-25T08:35:04;8.33;;;2.03;;
25327;SDS011;13279;51.300;12.394;2023-04-25T08:37:41;4.97;;;2.37;;
25327;SDS011;13279;51.300;12.394;2023-04-25T08:40:14;12.67;;;2.20;;
25327;SDS011;13279;51.300;12.394;2023-04-25T08:43:01;16.13;;;2.50;;
25327;SDS011;13279;51.300;12.394;2023-04-25T08:45:41;6.87;;;2.40;;
25327;SDS011;13279;51.300;12.394;2023-04-25T08:48:24;9.70;;;2.67;;
25327;SDS011;13279;51.300;12.394;2023-04-25T08:51:05;10.93;;;2.17;;
25327;SDS011;13279;51.300;12.394;2023-04-25T08:53:49;14.70;;;2.57;;
25327;SDS011;13279;51.300;12.394;2023-04-25T08:56:40;9.93;;;3.90;;
25327;SDS011;13279;51.300;12.394;2023-04-25T08:59:12;12.67;;;2.67;;
25327;SDS011;13279;51.300;12.394;2023-04-25T09:01:44;12.83;;;2.53;;
25327;SDS011;13279;51.300;12.394;2023-04-25T09:04:15;14.63;;;2.60;;
25327;SDS011;13279;51.300;12.394;2023-04-25T09:06:45;10.50;;;2.73;;
25327;SDS011;13279;51.300;12.394;2023-04-25T09:09:13;9.37;;;2.50;;
25327;SDS011;13279;51.300;12.394;2023-04-25T09:11:43;7.40;;;2.23;;
25327;SDS011;13279;51.300;12.394;2023-04-25T09:14:13;10.33;;;2.17;;
25327;SDS011;13279;51.300;12.394;2023-04-25T09:16:57;10.53;;;2.40;;
25327;SDS011;13279;51.300;12.394;2023-04-25T09:19:37;7.03;;;2.27;;
25327;SDS011;13279;51.300;12.394;2023-04-25T09:22:16;8.40;;;2.77;;
25327;SDS011;13279;51.300;12.394;2023-04-25T09:24:50;4.57;;;2.40;;
25327;SDS011;13279;51.300;12.394;2023-04-25T09:27:20;10.50;;;3.10;;
25327;SDS011;13279;51.300;12.394;2023-04-25T09:29:59;8.23;;;2.60;;
25327;SDS011;13279;51.300;12.394;2023-04-25T09:32:45;8.20;;;2.33;;
25327;SDS011;13279;51.300;12.394;2023-04-25T09:35:24;11.63;;;2.33;;
25327;SDS011;13279;51.300;12.394;2023-04-25T09:37:54;6.80;;;2.33;;
25327;SDS011;13279;51.300;12.394;2023-04-25T09:40:46;15.67;;;3.10;;
25327;SDS011;13279;51.300;12.394;2023-04-25T09:43:25;12.13;;;4.07;;
25327;SDS011;13279;51.300;12.394;2023-04-25T09:45:57;8.60;;;2.50;;
25327;SDS011;13279;51.300;12.394;2023-04-25T09:48:31;7.50;;;2.50;;
25327;SDS011;13279;51.300;12.394;2023-04-25T09:51:11;9.43;;;3.20;;
25327;SDS011;13279;51.300;12.394;2023-04-25T09:53:45;7.77;;;2.60;;
25327;SDS011;13279;51.300;12.394;2023-04-25T09:56:27;13.00;;;3.50;;
25327;SDS011;13279;51.300;12.394;2023-04-25T09:59:05;11.87;;;2.73;;
25327;SDS011;13279;51.300;12.394;2023-04-25T10:01:35;12.50;;;2.80;;
25327;SDS011;13279;51.300;12.394;2023-04-25T10:04:24;12.00;;;3.00;;
25327;SDS011;13279;51.300;12.394;2023-04-25T10:07:18;20.43;;;3.63;;
25327;SDS011;13279;51.300;12.394;2023-04-25T10:09:53;14.47;;;3.10;;
25327;SDS011;13279;51.300;12.394;2023-04-25T10:12:35;12.53;;;3.87;;
25327;SDS011;13279;51.300;12.394;2023-04-25T10:15:09;16.27;;;4.67;;
25327;SDS011;13279;51.300;12.394;2023-04-25T10:17:51;15.77;;;3.67;;
25327;SDS011;13279;51.300;12.394;2023-04-25T10:20:20;13.17;;;3.60;;
25327;SDS011;13279;51.300;12.394;2023-04-25T10:22:49;15.00;;;4.03;;
25327;SDS011;13279;51.300;12.394;2023-04-25T10:25:23;6.73;;;3.70;;
25327;SDS011;13279;51.300;12.394;2023-04-25T10:27:56;12.07;;;3.93;;
25327;SDS011;13279;51.300;12.394;2023-04-25T10:30:32;15.57;;;5.13;;
25327;SDS011;13279;51.300;12.394;2023-04-25T10:32:59;14.57;;;4.73;;
25327;SDS011;13279;51.300;12.394;2023-04-25T10:35:43;17.47;;;4.63;;
25327;SDS011;13279;51.300;12.394;2023-04-25T10:38:14;16.87;;;4.27;;
25327;SDS011;13279;51.300;12.394;2023-04-25T10:40:57;21.10;;;4.90;;
25327;SDS011;13279;51.300;12.394;2023-04-25T10:46:34;20.90;;;5.27;;
25327;SDS011;13279;51.300;12.394;2023-04-25T10:49:04;17.87;;;5.10;;
25327;SDS011;13279;51.300;12.394;2023-04-25T10:51:32;13.07;;;4.47;;
25327;SDS011;13279;51.300;12.394;2023-04-25T10:54:05;17.67;;;5.00;;
25327;SDS011;13279;51.300;12.394;2023-04-25T10:56:39;14.87;;;4.53;;
25327;SDS011;13279;51.300;12.394;2023-04-25T10:59:12;16.77;;;4.53;;
25327;SDS011;13279;51.300;12.394;2023-04-25T11:01:45;7.57;;;4.10;;
25327;SDS011;13279;51.300;12.394;2023-04-25T11:04:22;15.57;;;4.60;;
25327;SDS011;13279;51.300;12.394;2023-04-25T11:06:58;13.63;;;4.47;;
25327;SDS011;13279;51.300;12.394;2023-04-25T11:09:33;12.30;;;4.17;;
25327;SDS011;13279;51.300;12.394;2023-04-25T11:12:11;21.60;;;4.57;;
25327;SDS011;13279;51.300;12.394;2023-04-25T11:14:44;16.90;;;4.50;;
25327;SDS011;13279;51.300;12.394;2023-04-25T11:17:18;16.50;;;5.20;;
25327;SDS011;13279;51.300;12.394;2023-04-25T11:19:58;16.97;;;5.33;;
25327;SDS011;13279;51.300;12.394;2023-04-25T11:22:32;15.20;;;4.80;;
25327;SDS011;13279;51.300;12.394;2023-04-25T11:25:04;13.20;;;4.43;;
25327;SDS011;13279;51.300;12.394;2023-04-25T11:27:37;15.90;;;5.17;;
25327;SDS011;13279;51.300;12.394;2023-04-25T11:30:23;13.73;;;4.90;;
25327;SDS011;13279;51.300;12.394;2023-04-25T11:32:55;11.60;;;5.27;;
25327;SDS011;13279;51.300;12.394;2023-04-25T11:35:23;10.17;;;4.73;;
25327;SDS011;13279;51.300;12.394;2023-04-25T11:37:57;17.13;;;4.90;;
25327;SDS011;13279;51.300;12.394;2023-04-25T11:40:27;14.97;;;4.53;;
25327;SDS011;13279;51.300;12.394;2023-04-25T11:42:59;14.60;;;3.97;;
25327;SDS011;13279;51.300;12.394;2023-04-25T11:45:30;15.30;;;3.60;;
25327;SDS011;13279;51.300;12.394;2023-04-25T11:48:01;21.87;;;4.80;;
25327;SDS011;13279;51.300;12.394;2023-04-25T11:50:32;12.27;;;3.50;;
25327;SDS011;13279;51.300;12.394;2023-04-25T11:53:05;18.70;;;3.77;;
25327;SDS011;13279;51.300;12.394;2023-04-25T11:55:39;16.70;;;3.37;;
25327;SDS011;13279;51.300;12.394;2023-04-25T11:58:12;9.93;;;3.23;;
25327;SDS011;13279;51.300;12.394;2023-04-25T12:00:47;16.63;;;2.87;;
25327;SDS011;13279;51.300;12.394;2023-04-25T12:03:15;20.87;;;4.00;;
25327;SDS011;13279;51.300;12.394;2023-04-25T12:05:47;11.40;;;3.37;;
25327;SDS011;13279;51.300;12.394;2023-04-25T12:08:15;15.37;;;3.93;;
25327;SDS011;13279;51.300;12.394;2023-04-25T12:10:44;12.67;;;3.20;;
25327;SDS011;13279;51.300;12.394;2023-04-25T12:13:18;18.67;;;4.40;;
25327;SDS011;13279;51.300;12.394;2023-04-25T12:15:48;7.33;;;2.70;;
25327;SDS011;13279;51.300;12.394;2023-04-25T12:18:18;5.03;;;2.33;;
25327;SDS011;13279;51.300;12.394;2023-04-25T12:20:47;8.53;;;2.43;;
25327;SDS011;13279;51.300;12.394;2023-04-25T12:23:28;7.73;;;2.80;;
25327;SDS011;13279;51.300;12.394;2023-04-25T12:25:56;10.30;;;2.70;;
25327;SDS011;13279;51.300;12.394;2023-04-25T12:28:33;8.60;;;2.50;;
25327;SDS011;13279;51.300;12.394;2023-04-25T12:31:15;10.80;;;2.30;;
25327;SDS011;13279;51.300;12.394;2023-04-25T12:34:07;14.07;;;3.23;;
25327;SDS011;13279;51.300;12.394;2023-04-25T12:36:57;12.13;;;2.60;;
25327;SDS011;13279;51.300;12.394;2023-04-25T12:39:44;13.13;;;2.60;;
25327;SDS011;13279;51.300;12.394;2023-04-25T12:42:24;11.50;;;2.70;;
25327;SDS011;13279;51.300;12.394;2023-04-25T12:45:11;13.77;;;2.40;;
25327;SDS011;13279;51.300;12.394;2023-04-25T12:48:12;13.87;;;2.83;;
25327;SDS011;13279;51.300;12.394;2023-04-25T12:50:54;8.80;;;2.67;;
25327;SDS011;13279;51.300;12.394;2023-04-25T12:53:36;13.33;;;2.50;;
25327;SDS011;13279;51.300;12.394;2023-04-25T12:56:30;3.87;;;2.27;;
25327;SDS011;13279;51.300;12.394;2023-04-25T12:59:09;13.03;;;2.33;;
25327;SDS011;13279;51.300;12.394;2023-04-25T13:01:36;21.03;;;8.97;;
25327;SDS011;13279;51.300;12.394;2023-04-25T13:04:09;10.97;;;2.37;;
25327;SDS011;13279;51.300;12.394;2023-04-25T13:06:37;4.13;;;2.43;;
25327;SDS011;13279;51.300;12.394;2023-04-25T13:09:04;10.20;;;3.03;;
25327;SDS011;13279;51.300;12.394;2023-04-25T13:11:35;12.77;;;2.13;;
25327;SDS011;13279;51.300;12.394;2023-04-25T13:14:17;11.80;;;2.10;;
25327;SDS011;13279;51.300;12.394;2023-04-25T13:16:45;7.03;;;2.20;;
25327;SDS011;13279;51.300;12.394;2023-04-25T13:19:14;11.80;;;3.17;;
25327;SDS011;13279;51.300;12.394;2023-04-25T13:21:41;6.13;;;2.30;;
25327;SDS011;13279;51.300;12.394;2023-04-25T13:24:09;11.67;;;1.87;;
25327;SDS011;13279;51.300;12.394;2023-04-25T13:26:53;9.97;;;2.37;;
25327;SDS011;13279;51.300;12.394;2023-04-25T13:29:23;6.77;;;2.60;;
25327;SDS011;13279;51.300;12.394;2023-04-25T13:31:50;7.70;;;2.70;;
25327;SDS011;13279;51.300;12.394;2023-04-25T13:34:20;7.10;;;2.13;;
25327;SDS011;13279;51.300;12.394;2023-04-25T13:36:51;7.77;;;3.37;;
25327;SDS011;13279;51.300;12.394;2023-04-25T13:39:21;8.60;;;1.93;;
25327;SDS011;13279;51.300;12.394;2023-04-25T13:41:48;7.10;;;2.20;;
25327;SDS011;13279;51.300;12.394;2023-04-25T13:44:16;9.37;;;1.77;;
25327;SDS011;13279;51.300;12.394;2023-04-25T13:46:43;6.50;;;1.83;;
25327;SDS011;13279;51.300;12.394;2023-04-25T13:49:11;7.97;;;1.93;;
25327;SDS011;13279;51.300;12.394;2023-04-25T13:51:41;8.93;;;2.30;;
25327;SDS011;13279;51.300;12.394;2023-04-25T13:54:21;4.50;;;1.47;;
25327;SDS011;13279;51.300;12.394;2023-04-25T13:56:49;6.63;;;1.70;;
25327;SDS011;13279;51.300;12.394;2023-04-25T13:59:18;8.73;;;1.73;;
25327;SDS011;13279;51.300;12.394;2023-04-25T14:01:48;2.90;;;1.40;;
25327;SDS011;13279;51.300;12.394;2023-04-25T14:04:18;11.20;;;1.73;;
25327;SDS011;13279;51.300;12.394;2023-04-25T14:06:57;5.87;;;2.27;;
25327;SDS011;13279;51.300;12.394;2023-04-25T14:09:31;8.20;;;2.37;;
25327;SDS011;13279;51.300;12.394;2023-04-25T14:12:00;4.60;;;1.60;;
25327;SDS011;13279;51.300;12.394;2023-04-25T14:14:31;4.63;;;1.37;;
25327;SDS011;13279;51.300;12.394;2023-04-25T14:17:11;13.30;;;4.27;;
25327;SDS011;13279;51.300;12.394;2023-04-25T14:19:49;2.07;;;1.40;;
25327;SDS011;13279;51.300;12.394;2023-04-25T14:22:18;8.50;;;1.90;;
25327;SDS011;13279;51.300;12.394;2023-04-25T14:24:46;10.07;;;1.60;;
25327;SDS011;13279;51.300;12.394;2023-04-25T14:27:13;12.37;;;1.97;;
25327;SDS011;13279;51.300;12.394;2023-04-25T14:29:41;4.33;;;1.43;;
25327;SDS011;13279;51.300;12.394;2023-04-25T14:32:09;3.93;;;1.73;;
25327;SDS011;13279;51.300;12.394;2023-04-25T14:34:39;7.37;;;1.73;;
25327;SDS011;13279;51.300;12.394;2023-04-25T14:37:07;13.03;;;1.80;;
25327;SDS011;13279;51.300;12.394;2023-04-25T14:39:36;6.57;;;1.50;;
25327;SDS011;13279;51.300;12.394;2023-04-25T14:42:04;5.20;;;1.73;;
25327;SDS011;13279;51.300;12.394;2023-04-25T14:44:31;7.57;;;2.77;;
25327;SDS011;13279;51.300;12.394;2023-04-25T14:46:59;11.00;;;3.10;;
25327;SDS011;13279;51.300;12.394;2023-04-25T14:49:26;6.17;;;3.00;;
25327;SDS011;13279;51.300;12.394;2023-04-25T14:51:58;7.33;;;1.90;;
25327;SDS011;13279;51.300;12.394;2023-04-25T14:54:26;9.40;;;2.00;;
25327;SDS011;13279;51.300;12.394;2023-04-25T14:56:55;6.50;;;2.20;;
25327;SDS011;13279;51.300;12.394;2023-04-25T14:59:24;8.90;;;2.20;;
25327;SDS011;13279;51.300;12.394;2023-04-25T15:01:52;7.37;;;2.30;;
25327;SDS011;13279;51.300;12.394;2023-04-25T15:04:22;5.50;;;1.97;;
25327;SDS011;13279;51.300;12.394;2023-04-25T15:06:53;6.17;;;1.70;;
25327;SDS011;13279;51.300;12.394;2023-04-25T15:09:21;6.40;;;2.03;;
25327;SDS011;13279;51.300;12.394;2023-04-25T15:11:50;6.07;;;2.00;;
25327;SDS011;13279;51.300;12.394;2023-04-25T15:14:19;8.07;;;1.80;;